Time;durP1;ratioP1;P1;durP2;ratioP2;P2;SDS_P1;SDS_P2;PMS_P1;PMS_P2;Temp;Humidity;BMP_temperature;BMP_pressure;BME280_temperature;BME280_humidity;BME280_pressure;Samples;Min_cycle;Max_cycle;Signal;HPM_P1;HPM_P2
2023/01/30 00:02:00;;;;;;;31.35;20.20;;;7.00;70.30;;;;;;5029813;28;20044;-50
2023/01/30 00:04:27;;;;;;;32.50;20.90;;;7.00;70.40;;;;;;5027927;28;20410;-47
2023/01/30 00:06:56;;;;;;;30.90;20.65;;;7.00;70.30;;;;;;5028656;28;20040;-46
2023/01/30 00:09:25;;;;;;;31.27;20.10;;;7.00;70.30;;;;;;5020639;28;20037;-45
2023/01/30 00:12:01;;;;;;;31.23;19.70;;;7.00;70.40;;;;;;5043596;28;20553;-48
2023/01/30 00:14:28;;;;;;;32.75;20.15;;;7.00;70.40;;;;;;5027269;28;20041;-47
2023/01/30 00:16:58;;;;;;;30.92;20.38;;;7.00;70.40;;;;;;5029091;28;20076;-48
2023/01/30 00:19:27;;;;;;;31.05;20.35;;;7.10;70.50;;;;;;5030964;28;20087;-46
2023/01/30 00:21:53;;;;;;;32.17;19.73;;;7.10;70.40;;;;;;5032501;28;20600;-45
2023/01/30 00:24:24;;;;;;;26.55;18.65;;;7.10;70.50;;;;;;5031563;28;20041;-47
2023/01/30 00:26:54;;;;;;;;;;;7.10;70.70;;;;;;5029933;28;20048;-50
2023/01/30 00:29:22;;;;;;;30.60;17.98;;;7.10;71.00;;;;;;5027585;28;19925;-47
2023/01/30 00:31:53;;;;;;;29.15;18.90;;;7.10;70.20;;;;;;5032118;28;20041;-45
2023/01/30 00:34:22;;;;;;;27.50;19.58;;;7.10;70.40;;;;;;5046768;28;20045;-47
2023/01/30 00:36:51;;;;;;;28.55;18.15;;;7.10;70.60;;;;;;5045365;28;20490;-46
2023/01/30 00:39:35;;;;;;;27.55;18.67;;;7.10;70.70;;;;;;5046174;28;20045;-49
2023/01/30 00:47:36;;;;;;;27.55;19.88;;;7.20;70.80;;;;;;5025015;28;20041;-47
2023/01/30 00:50:05;;;;;;;31.75;18.75;;;7.20;70.80;;;;;;5030835;28;20128;-48
2023/01/30 00:52:34;;;;;;;31.27;18.23;;;7.20;70.90;;;;;;5031578;28;20085;-47
2023/01/30 00:55:03;;;;;;;27.10;18.90;;;7.20;71.00;;;;;;5035103;28;20039;-48
2023/01/30 00:57:29;;;;;;;28.02;17.77;;;7.20;71.00;;;;;;5032943;28;20142;-46
2023/01/30 00:59:58;;;;;;;28.50;18.98;;;7.20;71.10;;;;;;5024940;28;20160;-46
2023/01/30 01:02:25;;;;;;;32.83;19.65;;;7.30;71.20;;;;;;5045790;28;20170;-47
2023/01/30 01:05:01;;;;;;;27.63;18.55;;;7.30;71.20;;;;;;5026782;28;20065;-48
2023/01/30 01:07:30;;;;;;;25.30;17.40;;;7.30;71.30;;;;;;5031280;28;20087;-45
2023/01/30 01:09:58;;;;;;;28.25;18.63;;;7.40;71.20;;;;;;5030052;28;20050;-46
2023/01/30 01:12:24;;;;;;;28.38;18.52;;;7.40;71.30;;;;;;5029831;28;20042;-46
2023/01/30 01:14:51;;;;;;;27.10;18.30;;;7.40;71.30;;;;;;5023264;28;20069;-46
2023/01/30 01:17:18;;;;;;;30.67;19.50;;;7.40;71.30;;;;;;5031265;28;20068;-47
2023/01/30 01:19:49;;;;;;;27.05;17.55;;;7.50;71.40;;;;;;5047193;28;20045;-46
2023/01/30 01:22:16;;;;;;;24.38;17.38;;;7.50;71.40;;;;;;5029732;28;20037;-50
2023/01/30 01:24:53;;;;;;;25.85;18.35;;;7.50;72.00;;;;;;5039494;28;20038;-46
2023/01/30 01:27:22;;;;;;;25.98;17.60;;;7.50;71.30;;;;;;5047892;28;20033;-49
2023/01/30 01:29:50;;;;;;;26.92;17.30;;;7.50;71.20;;;;;;5031330;28;20071;-46
2023/01/30 01:32:21;;;;;;;26.13;17.08;;;7.60;71.40;;;;;;5042932;28;20593;-51
2023/01/30 01:34:53;;;;;;;25.73;17.25;;;7.60;71.30;;;;;;5030375;28;20045;-48
2023/01/30 01:37:22;;;;;;;27.30;17.50;;;7.60;71.90;;;;;;5030339;28;20053;-47
2023/01/30 01:42:41;;;;;;;28.35;17.73;;;7.60;71.40;;;;;;5027987;28;20125;-50
2023/01/30 01:45:21;;;;;;;26.98;17.02;;;7.60;71.50;;;;;;5029671;28;20052;-46
2023/01/30 01:48:02;;;;;;;30.02;19.25;;;7.60;71.50;;;;;;5025120;28;20030;-46
2023/01/30 01:50:43;;;;;;;24.98;17.40;;;7.70;72.00;;;;;;5039598;28;20053;-46
2023/01/30 01:53:17;;;;;;;28.05;17.25;;;7.70;71.90;;;;;;5027138;28;20120;-46
2023/01/30 01:55:47;;;;;;;26.58;16.35;;;7.70;71.70;;;;;;5034785;28;20478;-48
2023/01/30 01:58:22;;;;;;;27.85;17.08;;;7.70;71.80;;;;;;5029141;28;20072;-48
2023/01/30 02:00:56;;;;;;;26.20;17.77;;;7.70;71.90;;;;;;5042395;28;20069;-48
2023/01/30 02:03:25;;;;;;;17.70;13.20;;;7.80;71.90;;;;;;5030143;28;20528;-46
2023/01/30 02:06:01;;;;;;;24.27;16.70;;;7.80;71.80;;;;;;5028655;28;20042;-48
2023/01/30 02:08:40;;;;;;;27.85;16.75;;;7.80;71.80;;;;;;5042906;28;20575;-48
2023/01/30 02:11:16;;;;;;;25.15;17.75;;;7.80;72.00;;;;;;5046578;28;20104;-47
2023/01/30 02:13:46;;;;;;;26.63;16.30;;;7.80;72.00;;;;;;5023839;28;20072;-47
2023/01/30 02:16:14;;;;;;;26.58;17.42;;;7.80;72.00;;;;;;5029596;28;20042;-47
2023/01/30 02:18:45;;;;;;;26.10;16.92;;;7.80;72.00;;;;;;5022524;28;20132;-45
2023/01/30 02:21:39;;;;;;;25.50;17.52;;;7.80;72.10;;;;;;5029414;28;20044;-50
2023/01/30 02:24:11;;;;;;;28.48;18.23;;;7.80;72.50;;;;;;5028669;28;20124;-47
2023/01/30 02:26:51;;;;;;;26.15;18.00;;;7.80;72.30;;;;;;5019479;28;20038;-46
2023/01/30 02:29:35;;;;;;;26.92;17.70;;;7.90;72.70;;;;;;5031415;28;20041;-47
2023/01/30 02:32:32;;;;;;;29.85;17.95;;;7.80;72.70;;;;;;5029999;28;20578;-47
2023/01/30 02:35:04;;;;;;;27.80;17.98;;;7.80;72.90;;;;;;5036309;28;20084;-51
2023/01/30 02:37:58;;;;;;;25.35;16.65;;;7.80;72.60;;;;;;5028515;28;20050;-51
2023/01/30 02:40:57;;;;;;;26.60;17.92;;;7.80;73.10;;;;;;5043589;28;20049;-47
2023/01/30 02:43:38;;;;;;;27.00;17.73;;;7.80;73.00;;;;;;5026788;28;20052;-49
2023/01/30 02:46:16;;;;;;;29.10;17.23;;;7.80;72.60;;;;;;5041064;28;20068;-50
2023/01/30 02:49:01;;;;;;;27.05;18.38;;;7.80;73.00;;;;;;5045797;28;20513;-49
2023/01/30 02:51:32;;;;;;;25.50;17.20;;;7.80;73.00;;;;;;5029289;28;20037;-48
2023/01/30 02:53:59;;;;;;;24.13;17.02;;;7.80;72.90;;;;;;5028240;28;20061;-50
2023/01/30 02:56:26;;;;;;;25.55;17.10;;;7.80;73.00;;;;;;5046605;28;20037;-50
2023/01/30 02:58:59;;;;;;;25.95;18.40;;;7.80;73.00;;;;;;5043055;28;20068;-47
2023/01/30 03:02:04;;;;;;;27.10;18.08;;;7.80;73.20;;;;;;5028097;28;20048;-47
2023/01/30 03:04:45;;;;;;;23.75;16.67;;;7.90;73.60;;;;;;5024196;28;20049;-50
2023/01/30 03:07:21;;;;;;;25.77;15.95;;;7.90;73.30;;;;;;5042495;28;20102;-47
2023/01/30 03:10:07;;;;;;;25.95;16.90;;;7.90;73.10;;;;;;5044907;28;20045;-47
2023/01/30 03:13:04;;;;;;;26.55;16.85;;;7.90;73.60;;;;;;5027854;28;20044;-49
2023/01/30 03:15:46;;;;;;;26.10;16.43;;;8.00;73.40;;;;;;5021872;28;20045;-46
2023/01/30 03:18:15;;;;;;;25.48;16.95;;;8.00;73.30;;;;;;5040733;28;20069;-47
2023/01/30 03:20:47;;;;;;;23.75;16.30;;;8.00;73.10;;;;;;5029349;28;20030;-49
2023/01/30 03:23:14;;;;;;;25.60;17.00;;;8.00;73.30;;;;;;5029291;28;20117;-47
2023/01/30 03:25:45;;;;;;;24.52;16.75;;;8.00;73.10;;;;;;5028369;28;20069;-46
2023/01/30 03:28:22;;;;;;;22.85;15.68;;;8.00;73.20;;;;;;5024576;28;20129;-49
2023/01/30 03:30:51;;;;;;;21.77;16.40;;;8.00;73.20;;;;;;5028568;28;20044;-45
2023/01/30 03:33:19;;;;;;;24.23;16.40;;;8.10;73.20;;;;;;5027245;28;20353;-46
2023/01/30 03:35:51;;;;;;;22.43;16.37;;;8.10;73.20;;;;;;5038361;28;20045;-44
2023/01/30 03:38:18;;;;;;;24.52;16.95;;;8.10;73.20;;;;;;5044208;28;20455;-48
2023/01/30 03:40:45;;;;;;;28.48;18.00;;;8.10;73.20;;;;;;5028054;28;20072;-45
2023/01/30 03:43:20;;;;;;;24.17;16.92;;;8.10;73.30;;;;;;5027148;28;20053;-48
2023/01/30 03:45:47;;;;;;;23.23;16.02;;;8.20;73.40;;;;;;5039037;28;20569;-48
2023/01/30 03:48:14;;;;;;;27.65;16.13;;;8.20;73.40;;;;;;5027516;28;20041;-45
2023/01/30 03:50:48;;;;;;;24.50;16.52;;;8.20;73.50;;;;;;5029168;28;20034;-47
2023/01/30 03:53:15;;;;;;;22.52;15.25;;;8.20;73.50;;;;;;5026519;28;20034;-48
2023/01/30 03:55:43;;;;;;;22.50;16.20;;;8.30;73.60;;;;;;5037366;28;20053;-45
2023/01/30 03:58:10;;;;;;;23.08;15.52;;;8.30;73.60;;;;;;5048992;28;20037;-49
2023/01/30 04:00:41;;;;;;;24.58;16.13;;;8.30;73.60;;;;;;5031970;28;20041;-45
2023/01/30 04:03:08;;;;;;;22.30;16.10;;;8.30;74.20;;;;;;5049254;28;20044;-47
2023/01/30 04:05:37;;;;;;;23.80;15.93;;;8.30;73.60;;;;;;5047714;28;20494;-49
2023/01/30 04:08:12;;;;;;;24.92;16.48;;;8.30;73.60;;;;;;5032593;28;20033;-46
2023/01/30 04:10:41;;;;;;;25.30;16.73;;;8.30;73.60;;;;;;5031260;28;20042;-51
2023/01/30 04:13:12;;;;;;;23.25;15.55;;;8.30;73.70;;;;;;5029337;28;20038;-47
2023/01/30 04:15:41;;;;;;;21.50;15.38;;;8.30;73.80;;;;;;5047868;28;20076;-47
2023/01/30 04:18:26;;;;;;;21.67;15.20;;;8.40;73.90;;;;;;5033039;28;20103;-46
2023/01/30 04:21:07;;;;;;;23.08;14.65;;;8.40;74.00;;;;;;5042828;28;20072;-46
2023/01/30 04:23:43;;;;;;;24.73;16.55;;;8.40;74.00;;;;;;5030263;28;20076;-46
2023/01/30 04:26:12;;;;;;;21.27;15.35;;;8.40;74.20;;;;;;5030863;28;20045;-48
2023/01/30 04:28:46;;;;;;;26.42;16.58;;;8.40;74.20;;;;;;5029677;28;20161;-48
2023/01/30 04:31:16;;;;;;;21.88;15.63;;;8.40;74.20;;;;;;5042197;28;20091;-48
2023/01/30 04:34:16;;;;;;;21.48;14.45;;;8.40;74.50;;;;;;4997708;28;20135;-47
2023/01/30 04:36:43;;;;;;;22.08;15.23;;;8.40;74.30;;;;;;5047869;28;20048;-47
2023/01/30 04:39:13;;;;;;;21.35;15.15;;;8.40;74.40;;;;;;5030748;28;20053;-50
2023/01/30 04:41:43;;;;;;;23.05;16.38;;;8.40;74.60;;;;;;5040321;28;20506;-47
2023/01/30 04:44:10;;;;;;;22.38;14.70;;;8.40;74.80;;;;;;5047154;28;20056;-45
2023/01/30 04:46:47;;;;;;;22.15;14.60;;;8.40;74.90;;;;;;5030658;28;20053;-46
2023/01/30 04:49:14;;;;;;;21.30;14.50;;;8.40;75.00;;;;;;5037942;28;20132;-50
2023/01/30 04:51:42;;;;;;;20.67;14.65;;;8.40;75.10;;;;;;5029453;28;20038;-49
2023/01/30 04:54:11;;;;;;;21.27;15.13;;;8.40;75.20;;;;;;5031024;28;20387;-48
2023/01/30 04:56:38;;;;;;;19.05;14.07;;;8.40;75.30;;;;;;5034796;28;20052;-49
2023/01/30 04:59:08;;;;;;;21.02;15.18;;;8.40;75.40;;;;;;5046173;28;20046;-48
2023/01/30 05:01:40;;;;;;;18.02;14.02;;;8.30;75.40;;;;;;5047374;28;20046;-46
2023/01/30 05:04:09;;;;;;;19.05;14.27;;;8.40;75.60;;;;;;5028793;28;20409;-46
2023/01/30 05:06:36;;;;;;;19.20;13.75;;;8.40;75.80;;;;;;5029572;28;20069;-48
2023/01/30 05:09:04;;;;;;;18.48;13.30;;;8.40;75.90;;;;;;5023594;28;20052;-50
2023/01/30 05:11:32;;;;;;;17.58;12.40;;;8.40;76.00;;;;;;5031484;28;20462;-46
2023/01/30 05:13:59;;;;;;;16.45;11.93;;;8.40;76.00;;;;;;5030993;28;20052;-46
2023/01/30 05:16:26;;;;;;;14.98;11.77;;;8.40;76.00;;;;;;5031068;28;20041;-46
2023/01/30 05:18:55;;;;;;;17.52;12.38;;;8.40;76.10;;;;;;5026252;28;20040;-46
2023/01/30 05:21:26;;;;;;;15.80;12.18;;;8.40;76.20;;;;;;5045403;28;20037;-47
2023/01/30 05:23:56;;;;;;;18.85;11.95;;;8.50;76.40;;;;;;5029037;28;20537;-50
2023/01/30 05:26:24;;;;;;;14.98;11.77;;;8.50;76.40;;;;;;5025021;28;20502;-48
2023/01/30 05:28:54;;;;;;;20.42;12.77;;;8.50;76.40;;;;;;5027315;28;20045;-48
2023/01/30 05:31:21;;;;;;;14.93;11.88;;;8.50;76.40;;;;;;5029769;28;20431;-47
2023/01/30 05:33:54;;;;;;;13.90;10.95;;;8.50;76.40;;;;;;5027588;28;20037;-50
2023/01/30 05:36:21;;;;;;;13.80;10.63;;;8.50;76.60;;;;;;5031481;28;20033;-50
2023/01/30 05:38:52;;;;;;;16.08;11.10;;;8.50;76.50;;;;;;5029416;28;20053;-50
2023/01/30 05:41:20;;;;;;;16.20;11.05;;;8.50;76.60;;;;;;5029948;28;20121;-47
2023/01/30 05:43:50;;;;;;;15.32;11.27;;;8.50;76.60;;;;;;5044067;28;20037;-47
2023/01/30 05:46:24;;;;;;;14.65;11.93;;;8.60;76.70;;;;;;5029827;28;20523;-50
2023/01/30 05:48:53;;;;;;;15.45;11.00;;;8.60;76.80;;;;;;5027854;28;20053;-49
2023/01/30 05:51:22;;;;;;;14.25;10.95;;;8.60;76.80;;;;;;5030085;28;20036;-49
2023/01/30 05:53:49;;;;;;;18.85;12.02;;;8.60;76.90;;;;;;5030421;28;20037;-45
2023/01/30 05:56:20;;;;;;;12.35;10.35;;;8.60;76.90;;;;;;5029754;28;20108;-49
2023/01/30 05:58:54;;;;;;;15.50;11.23;;;8.60;76.90;;;;;;5027451;28;20044;-46
2023/01/30 06:01:27;;;;;;;16.70;10.95;;;8.60;77.00;;;;;;5029382;28;20064;-50
2023/01/30 06:03:55;;;;;;;13.43;10.75;;;8.60;77.20;;;;;;5025615;28;20120;-51
2023/01/30 06:06:30;;;;;;;14.43;10.15;;;8.60;76.90;;;;;;5029981;28;20052;-50
2023/01/30 06:09:01;;;;;;;16.92;11.18;;;8.70;77.70;;;;;;5030110;28;20506;-49
2023/01/30 06:11:28;;;;;;;15.07;10.93;;;8.70;77.10;;;;;;5029402;28;20108;-48
2023/01/30 06:13:57;;;;;;;15.20;10.23;;;8.70;77.20;;;;;;5045477;28;20065;-51
2023/01/30 06:16:29;;;;;;;12.20;9.63;;;8.70;77.30;;;;;;5029680;28;20037;-51
2023/01/30 06:18:59;;;;;;;12.05;10.02;;;8.70;77.30;;;;;;5030444;28;20037;-51
2023/01/30 06:21:30;;;;;;;15.23;11.20;;;8.70;77.30;;;;;;5028254;28;20514;-49
2023/01/30 06:23:56;;;;;;;12.55;10.30;;;8.70;78.10;;;;;;5027340;28;20034;-48
2023/01/30 06:26:23;;;;;;;12.30;10.65;;;8.80;77.60;;;;;;5045632;28;20045;-47
2023/01/30 06:28:50;;;;;;;11.13;9.45;;;8.80;77.70;;;;;;5030180;28;20034;-45
2023/01/30 06:31:17;;;;;;;13.30;10.02;;;8.80;77.80;;;;;;5029061;28;20038;-48
2023/01/30 06:33:44;;;;;;;11.57;9.95;;;8.80;77.80;;;;;;5022667;28;20041;-49
2023/01/30 06:36:12;;;;;;;13.15;10.00;;;8.80;77.90;;;;;;5025228;28;20056;-51
2023/01/30 06:38:44;;;;;;;10.68;8.90;;;8.80;77.90;;;;;;5028266;28;20057;-49
2023/01/30 06:41:11;;;;;;;13.27;10.02;;;8.90;78.10;;;;;;5026685;28;20156;-49
2023/01/30 06:43:37;;;;;;;11.93;9.18;;;8.90;78.20;;;;;;5032939;28;20080;-50
2023/01/30 06:46:04;;;;;;;11.82;8.98;;;8.90;78.30;;;;;;5027525;28;20045;-51
2023/01/30 06:48:36;;;;;;;12.55;9.13;;;8.90;78.30;;;;;;5026865;28;20568;-48
2023/01/30 06:51:03;;;;;;;10.57;8.50;;;9.00;78.40;;;;;;5022742;28;20045;-49
2023/01/30 06:53:30;;;;;;;11.35;9.32;;;9.00;79.00;;;;;;5027823;28;20049;-51
2023/01/30 06:56:00;;;;;;;12.43;9.77;;;9.00;78.50;;;;;;5034339;28;20044;-51
2023/01/30 06:58:27;;;;;;;14.18;11.32;;;9.00;78.70;;;;;;5018873;28;20045;-50
2023/01/30 07:00:56;;;;;;;12.10;10.48;;;9.00;78.60;;;;;;5023902;28;20103;-48
2023/01/30 07:03:25;;;;;;;13.65;10.25;;;9.00;78.70;;;;;;5028262;28;20052;-47
2023/01/30 07:05:52;;;;;;;12.63;10.05;;;9.10;78.80;;;;;;5028109;28;20504;-47
2023/01/30 07:08:21;;;;;;;12.10;10.45;;;9.10;78.80;;;;;;5023086;28;20034;-47
2023/01/30 07:10:49;;;;;;;14.55;11.40;;;9.10;78.90;;;;;;5027912;28;20112;-48
2023/01/30 07:13:16;;;;;;;13.63;11.77;;;9.20;78.80;;;;;;5028387;28;20116;-47
2023/01/30 07:15:44;;;;;;;15.35;12.63;;;9.20;78.80;;;;;;5028002;28;20072;-49
2023/01/30 07:18:11;;;;;;;17.33;13.75;;;9.20;78.70;;;;;;5027003;28;20045;-51
2023/01/30 07:20:38;;;;;;;15.35;12.30;;;9.20;78.70;;;;;;5024920;28;20053;-51
2023/01/30 07:23:19;;;;;;;14.55;11.95;;;9.20;78.70;;;;;;5026975;28;20057;-50
2023/01/30 07:25:46;;;;;;;15.25;12.65;;;9.30;78.80;;;;;;5028956;28;20041;-47
2023/01/30 07:28:12;;;;;;;13.90;12.10;;;9.30;78.80;;;;;;5023108;28;20052;-51
2023/01/30 07:30:48;;;;;;;16.30;12.20;;;9.30;78.80;;;;;;5027880;28;20054;-51
2023/01/30 07:33:21;;;;;;;17.05;12.32;;;9.30;78.80;;;;;;5028324;28;20033;-49
2023/01/30 07:35:50;;;;;;;19.70;12.65;;;9.30;78.80;;;;;;5027809;28;20048;-49
2023/01/30 07:38:16;;;;;;;17.38;11.77;;;9.30;78.80;;;;;;5025262;28;20041;-48
2023/01/30 07:40:43;;;;;;;14.57;11.60;;;9.30;78.80;;;;;;5027508;28;20532;-52
2023/01/30 07:43:12;;;;;;;15.80;11.68;;;9.30;78.70;;;;;;5029578;28;20055;-50
2023/01/30 07:45:46;;;;;;;16.70;11.70;;;9.30;78.70;;;;;;5027927;28;20048;-52
2023/01/30 07:48:15;;;;;;;19.23;11.80;;;9.40;78.50;;;;;;5025783;28;20120;-49
2023/01/30 07:50:42;;;;;;;18.50;11.63;;;9.40;78.30;;;;;;5024299;28;20042;-50
2023/01/30 07:53:17;;;;;;;15.45;10.68;;;9.30;78.00;;;;;;5029766;28;20125;-51
2023/01/30 07:55:44;;;;;;;13.23;11.18;;;9.30;77.90;;;;;;5027270;28;20796;-48
2023/01/30 07:58:13;;;;;;;13.90;11.35;;;9.30;77.80;;;;;;5028847;28;20112;-48
2023/01/30 08:00:43;;;;;;;18.50;11.77;;;9.30;77.80;;;;;;5026842;28;20076;-50
2023/01/30 08:03:16;;;;;;;20.83;11.13;;;9.20;77.70;;;;;;5028047;28;20049;-51
2023/01/30 08:05:48;;;;;;;20.85;11.15;;;9.20;77.80;;;;;;5022032;28;20056;-51
2023/01/30 08:08:16;;;;;;;14.45;11.30;;;9.20;77.90;;;;;;5029115;28;20120;-46
2023/01/30 08:10:48;;;;;;;18.50;11.82;;;9.20;77.80;;;;;;5027826;28;20072;-49
2023/01/30 08:13:14;;;;;;;17.15;11.95;;;9.10;77.90;;;;;;5028154;28;20045;-48
2023/01/30 08:15:41;;;;;;;16.45;11.65;;;9.10;77.90;;;;;;5016114;28;20046;-49
2023/01/30 08:18:10;;;;;;;15.25;10.38;;;9.10;78.10;;;;;;5028209;28;20044;-49
2023/01/30 08:20:36;;;;;;;14.05;9.30;;;9.10;78.00;;;;;;5027313;28;20049;-48
2023/01/30 08:23:06;;;;;;;16.08;9.80;;;9.10;78.10;;;;;;5029525;28;20037;-51
2023/01/30 08:25:34;;;;;;;11.38;8.18;;;9.10;78.10;;;;;;5022867;28;20042;-46
2023/01/30 08:28:01;;;;;;;12.50;8.20;;;9.10;78.00;;;;;;5028620;28;20045;-46
2023/01/30 08:30:29;;;;;;;16.17;8.57;;;9.10;77.90;;;;;;5027675;28;20039;-49
2023/01/30 08:32:57;;;;;;;13.25;8.57;;;9.10;77.90;;;;;;5021184;28;20048;-51
2023/01/30 08:35:26;;;;;;;10.73;8.13;;;9.10;77.90;;;;;;5020849;28;20045;-48
2023/01/30 08:37:53;;;;;;;13.57;7.25;;;9.00;77.90;;;;;;5027924;28;20116;-49
2023/01/30 08:40:23;;;;;;;12.32;7.75;;;9.00;77.90;;;;;;5031102;28;20042;-47
2023/01/30 08:42:49;;;;;;;11.45;6.88;;;9.00;77.90;;;;;;5030506;28;20557;-46
2023/01/30 08:45:16;;;;;;;11.98;6.03;;;9.00;77.90;;;;;;5026531;28;20041;-47
2023/01/30 08:47:43;;;;;;;10.57;5.30;;;9.00;77.80;;;;;;5030918;28;20045;-50
2023/01/30 08:50:16;;;;;;;10.35;4.82;;;9.00;77.80;;;;;;5029109;28;20443;-48
2023/01/30 08:52:43;;;;;;;11.13;4.40;;;9.00;77.90;;;;;;5032488;28;20037;-47
2023/01/30 08:55:12;;;;;;;10.57;5.00;;;9.00;77.80;;;;;;5027296;28;20080;-47
2023/01/30 08:57:41;;;;;;;9.18;4.15;;;9.00;77.70;;;;;;5032233;28;20120;-48
2023/01/30 09:00:13;;;;;;;10.70;3.85;;;9.00;77.50;;;;;;5032005;28;20121;-48
2023/01/30 09:02:40;;;;;;;10.55;4.38;;;9.00;77.50;;;;;;5024507;28;20045;-49
2023/01/30 09:05:07;;;;;;;13.38;4.13;;;9.00;77.30;;;;;;5030500;28;20045;-47
2023/01/30 09:07:34;;;;;;;10.55;3.65;;;9.00;77.20;;;;;;5031988;28;20072;-51
2023/01/30 09:10:01;;;;;;;7.95;3.40;;;9.00;77.20;;;;;;5031275;28;20037;-49
2023/01/30 09:12:27;;;;;;;9.02;3.53;;;9.00;77.10;;;;;;5030135;28;20109;-46
2023/01/30 09:14:57;;;;;;;6.18;3.20;;;9.00;76.90;;;;;;5026334;28;20045;-51
2023/01/30 09:17:25;;;;;;;8.32;3.35;;;9.00;76.80;;;;;;5031066;28;20487;-51
2023/01/30 09:19:54;;;;;;;10.85;4.22;;;9.00;76.60;;;;;;5030502;28;20049;-47
2023/01/30 09:22:23;;;;;;;10.07;3.13;;;9.00;76.60;;;;;;5030373;28;20128;-49
2023/01/30 09:24:49;;;;;;;10.85;2.80;;;9.00;76.40;;;;;;5031074;28;20121;-51
2023/01/30 09:27:16;;;;;;;5.75;2.72;;;9.00;76.20;;;;;;5029671;28;20448;-48
2023/01/30 09:29:43;;;;;;;11.68;3.35;;;9.00;76.00;;;;;;5027052;28;20498;-46
2023/01/30 09:32:11;;;;;;;12.23;3.05;;;9.10;75.90;;;;;;5028612;28;20030;-49
2023/01/30 09:34:37;;;;;;;8.65;3.05;;;9.00;75.70;;;;;;5031831;28;20520;-50
2023/01/30 09:37:07;;;;;;;8.88;3.22;;;9.10;75.60;;;;;;5030540;28;20041;-49
2023/01/30 09:39:33;;;;;;;10.13;3.55;;;9.10;75.50;;;;;;5026427;28;20045;-50
2023/01/30 09:42:06;;;;;;;7.28;3.17;;;9.10;75.50;;;;;;5033952;28;20095;-47
2023/01/30 09:44:54;;;;;;;11.43;2.90;;;9.10;75.20;;;;;;5031153;28;20049;-47
2023/01/30 09:47:37;;;;;;;8.57;3.60;;;9.20;74.80;;;;;;5026223;28;20029;-50
2023/01/30 09:50:23;;;;;;;12.38;3.83;;;9.20;74.80;;;;;;5017849;28;20038;-48
2023/01/30 09:53:33;;;;;;;10.57;3.35;;;9.20;74.50;;;;;;5028975;28;20052;-49
2023/01/30 09:56:05;;;;;;;8.20;2.95;;;9.20;74.10;;;;;;5027892;28;20046;-47
2023/01/30 09:58:50;;;;;;;16.58;4.40;;;9.30;74.30;;;;;;5030900;28;20120;-46
2023/01/30 10:01:41;;;;;;;9.93;3.40;;;9.30;74.50;;;;;;5028917;28;20096;-50
2023/01/30 10:04:42;;;;;;;10.82;3.10;;;9.30;74.30;;;;;;5028900;28;20047;-45
2023/01/30 10:07:40;;;;;;;15.52;3.58;;;9.40;73.90;;;;;;5027589;28;20045;-51
2023/01/30 10:10:25;;;;;;;9.65;2.97;;;9.50;74.00;;;;;;5027922;28;20498;-47
2023/01/30 10:13:09;;;;;;;18.55;3.30;;;9.60;73.00;;;;;;5028948;28;20041;-47
2023/01/30 10:15:57;;;;;;;16.80;3.40;;;9.60;73.20;;;;;;5029849;28;20148;-49
2023/01/30 10:18:38;;;;;;;10.05;3.00;;;9.70;73.10;;;;;;5029628;28;20042;-49
2023/01/30 10:21:23;;;;;;;13.07;4.05;;;9.80;72.60;;;;;;5023180;28;20037;-52
2023/01/30 10:24:19;;;;;;;10.95;3.55;;;9.80;71.90;;;;;;5029685;28;20132;-45
2023/01/30 10:26:47;;;;;;;13.48;2.85;;;9.90;71.30;;;;;;5025555;28;20041;-51
2023/01/30 10:29:32;;;;;;;7.43;3.15;;;10.00;71.60;;;;;;5030470;28;20473;-48
2023/01/30 10:32:09;;;;;;;11.55;3.92;;;10.00;70.90;;;;;;5030279;28;20545;-51
2023/01/30 10:34:39;;;;;;;13.85;2.65;;;10.10;70.60;;;;;;5030136;28;20037;-47
2023/01/30 10:37:29;;;;;;;11.05;2.97;;;10.10;70.80;;;;;;5027629;28;20112;-47
2023/01/30 10:40:20;;;;;;;10.15;3.40;;;10.20;69.50;;;;;;5028523;28;20430;-48
2023/01/30 10:42:58;;;;;;;;;;;10.20;69.80;;;;;;5030649;28;20050;-49
2023/01/30 10:45:48;;;;;;;10.13;2.67;;;10.30;70.40;;;;;;5025539;28;19971;-47
2023/01/30 10:48:23;;;;;;;9.80;3.13;;;10.30;69.20;;;;;;5025037;28;20057;-51
2023/01/30 10:51:22;;;;;;;10.07;3.05;;;10.30;68.90;;;;;;5023136;28;20042;-48
2023/01/30 10:54:00;;;;;;;7.47;3.00;;;10.30;68.40;;;;;;5029892;28;20052;-47
2023/01/30 10:56:58;;;;;;;9.30;3.40;;;10.30;68.30;;;;;;5030902;28;20467;-50
2023/01/30 10:59:37;;;;;;;13.50;3.55;;;10.30;67.80;;;;;;5017784;28;20405;-48
2023/01/30 11:02:33;;;;;;;12.50;3.50;;;10.40;67.90;;;;;;5019665;28;20053;-47
2023/01/30 11:05:11;;;;;;;12.60;3.78;;;10.30;67.40;;;;;;5027400;28;20572;-45
2023/01/30 11:07:39;;;;;;;11.82;3.42;;;10.30;67.40;;;;;;5029430;28;20045;-49
2023/01/30 11:10:16;;;;;;;9.30;3.65;;;10.30;67.80;;;;;;5029592;28;20048;-47
2023/01/30 11:12:43;;;;;;;9.23;3.25;;;10.30;67.60;;;;;;5028831;28;20117;-50
2023/01/30 11:15:10;;;;;;;10.60;3.30;;;10.30;67.70;;;;;;5025410;28;20084;-50
2023/01/30 11:17:41;;;;;;;9.20;3.67;;;10.30;67.60;;;;;;5043955;28;20044;-47
2023/01/30 11:20:21;;;;;;;15.15;3.45;;;10.30;67.30;;;;;;5029377;28;20135;-49
2023/01/30 11:22:49;;;;;;;11.02;2.38;;;10.40;66.70;;;;;;5024402;28;20080;-48
2023/01/30 11:25:20;;;;;;;10.18;3.08;;;10.30;66.60;;;;;;5028717;28;20486;-50
2023/01/30 11:28:12;;;;;;;9.63;3.25;;;10.40;66.80;;;;;;5028446;28;20494;-47
2023/01/30 11:30:40;;;;;;;12.45;3.38;;;10.40;65.90;;;;;;5024189;28;20085;-49
2023/01/30 11:33:20;;;;;;;9.48;3.05;;;10.40;66.40;;;;;;5030266;28;20088;-49
2023/01/30 11:36:06;;;;;;;14.15;3.03;;;10.40;65.90;;;;;;5028534;28;20046;-51
2023/01/30 11:38:38;;;;;;;8.38;2.95;;;10.40;65.20;;;;;;5023421;28;20495;-45
2023/01/30 11:41:12;;;;;;;7.75;2.20;;;10.40;65.60;;;;;;5024645;28;20043;-46
2023/01/30 11:43:39;;;;;;;9.73;3.00;;;10.50;65.70;;;;;;5029664;28;20460;-48
2023/01/30 11:46:11;;;;;;;12.32;3.10;;;10.50;65.60;;;;;;5028122;28;20037;-48
2023/01/30 11:48:52;;;;;;;15.13;3.25;;;10.50;65.30;;;;;;5029510;28;20045;-49
2023/01/30 11:51:41;;;;;;;7.10;2.67;;;10.50;64.60;;;;;;5020490;28;20042;-50
2023/01/30 11:54:29;;;;;;;11.15;2.25;;;10.50;64.90;;;;;;5030337;28;20042;-46
2023/01/30 11:57:00;;;;;;;11.68;3.53;;;10.50;64.40;;;;;;5028217;28;20140;-48
2023/01/30 11:59:53;;;;;;;11.07;3.08;;;10.50;64.60;;;;;;5022718;28;20501;-48
2023/01/30 12:02:24;;;;;;;7.93;2.17;;;10.50;64.50;;;;;;5028358;28;20041;-48
2023/01/30 12:04:59;;;;;;;12.60;3.33;;;10.50;64.70;;;;;;5027713;28;20077;-48
2023/01/30 12:07:30;;;;;;;7.45;2.40;;;10.50;64.50;;;;;;5029943;28;20037;-51
2023/01/30 12:09:58;;;;;;;8.23;2.50;;;10.50;64.80;;;;;;5029796;28;20052;-49
2023/01/30 12:12:34;;;;;;;10.25;3.13;;;10.50;64.90;;;;;;5029650;28;20608;-47
2023/01/30 12:15:28;;;;;;;8.85;2.53;;;10.50;64.60;;;;;;5032862;28;20092;-50
2023/01/30 12:17:58;;;;;;;6.45;2.53;;;10.50;64.20;;;;;;5033792;28;20122;-47
2023/01/30 12:20:42;;;;;;;12.38;3.65;;;10.50;64.40;;;;;;5027371;28;20042;-51
2023/01/30 12:23:17;;;;;;;8.57;2.42;;;10.50;64.00;;;;;;5033793;28;20045;-49
2023/01/30 12:26:14;;;;;;;10.00;3.17;;;10.50;64.20;;;;;;5031825;28;20576;-49
2023/01/30 12:29:00;;;;;;;8.38;2.65;;;10.50;63.70;;;;;;5029667;28;20046;-47
2023/01/30 12:31:45;;;;;;;15.13;3.50;;;10.50;63.70;;;;;;5037795;28;20129;-48
2023/01/30 12:34:12;;;;;;;10.80;2.63;;;10.50;63.40;;;;;;5026742;28;20484;-46
2023/01/30 12:36:51;;;;;;;8.70;3.20;;;10.60;64.20;;;;;;5028596;28;20037;-48
2023/01/30 12:39:55;;;;;;;10.18;3.03;;;10.60;63.70;;;;;;5034835;28;20043;-49
2023/01/30 12:42:51;;;;;;;14.68;3.00;;;10.60;62.70;;;;;;5027891;28;20072;-51
2023/01/30 12:45:25;;;;;;;12.60;2.55;;;10.70;63.40;;;;;;5026010;28;20128;-46
2023/01/30 12:48:06;;;;;;;11.48;3.22;;;10.70;63.60;;;;;;5029848;28;20418;-48
2023/01/30 12:50:53;;;;;;;10.25;3.08;;;10.70;63.30;;;;;;5029999;28;20050;-48
2023/01/30 12:53:30;;;;;;;8.13;2.80;;;10.80;63.10;;;;;;5019016;28;20040;-46
2023/01/30 12:56:15;;;;;;;11.27;2.85;;;10.80;63.30;;;;;;5030172;28;20934;-46
2023/01/30 12:59:00;;;;;;;9.00;3.13;;;10.80;63.40;;;;;;5034490;28;20049;-46
2023/01/30 13:01:48;;;;;;;10.00;3.33;;;10.80;62.50;;;;;;5032383;28;20068;-50
2023/01/30 13:04:33;;;;;;;10.85;2.97;;;10.90;62.90;;;;;;5041189;28;20042;-51
2023/01/30 13:07:37;;;;;;;9.40;2.70;;;10.90;63.00;;;;;;5028964;28;20498;-48
2023/01/30 13:10:37;;;;;;;11.50;2.95;;;11.00;62.50;;;;;;5024334;28;20133;-48
2023/01/30 13:13:30;;;;;;;13.90;2.97;;;11.10;62.50;;;;;;5023722;28;20087;-46
2023/01/30 13:16:05;;;;;;;11.77;3.45;;;11.10;61.50;;;;;;5027545;28;20067;-46
2023/01/30 13:18:35;;;;;;;10.00;2.45;;;11.10;62.00;;;;;;5032956;28;20049;-51
2023/01/30 13:21:27;;;;;;;15.48;3.58;;;11.20;61.80;;;;;;5031843;28;20095;-46
2023/01/30 13:24:19;;;;;;;10.60;3.55;;;11.20;61.10;;;;;;5031167;28;20494;-50